createdAt,value
2023-01-26T00:04:24.678Z,16.40
2023-01-26T00:09:26.273Z,16.63
2023-01-26T00:14:27.956Z,15.80
2023-01-26T00:19:29.610Z,15.85
2023-01-26T00:24:31.297Z,15.48
2023-01-26T00:29:32.907Z,15.55
2023-01-26T00:34:34.745Z,17.60
2023-01-26T00:39:36.410Z,18.10
2023-01-26T00:44:38.730Z,18.52
2023-01-26T00:49:40.441Z,18.75
2023-01-26T00:54:42.134Z,21.25
2023-01-26T00:59:43.842Z,19.33
2023-01-26T01:04:45.531Z,20.58
2023-01-26T01:09:47.187Z,20.88
2023-01-26T01:14:48.945Z,22.65
2023-01-26T01:19:50.587Z,24.38
2023-01-26T01:24:52.278Z,24.73
2023-01-26T01:29:54.034Z,25.10
2023-01-26T01:34:55.643Z,25.95
2023-01-26T01:39:57.488Z,25.88
2023-01-26T01:45:45.627Z,26.58
2023-01-26T01:50:49.921Z,24.45
2023-01-26T01:55:58.232Z,24.83
2023-01-26T02:01:00.135Z,25.35
2023-01-26T02:06:04.297Z,22.88
2023-01-26T02:11:13.857Z,25.48
2023-01-26T02:16:16.804Z,23.20
2023-01-26T02:21:21.022Z,22.33
2023-01-26T02:26:24.877Z,22.50
2023-01-26T02:31:27.706Z,21.63
2023-01-26T02:36:31.815Z,22.40
2023-01-26T02:41:51.902Z,22.83
2023-01-26T02:46:53.761Z,21.45
2023-01-26T02:51:55.422Z,20.95
2023-01-26T02:56:57.053Z,22.38
2023-01-26T03:01:58.874Z,21.00
2023-01-26T03:07:00.581Z,21.13
2023-01-26T03:12:02.619Z,22.27
2023-01-26T03:17:04.294Z,21.55
2023-01-26T03:22:24.656Z,21.55
2023-01-26T03:27:26.592Z,21.65
2023-01-26T03:32:28.309Z,22.33
2023-01-26T03:37:36.993Z,23.67
2023-01-26T03:42:57.292Z,23.75
2023-01-26T03:48:28.560Z,23.42
2023-01-26T03:53:49.143Z,23.15
2023-01-26T03:59:12.291Z,22.88
2023-01-26T04:04:32.682Z,21.67
2023-01-26T04:09:36.565Z,22.52
2023-01-26T04:14:57.167Z,21.98
2023-01-26T04:20:17.635Z,21.65
2023-01-26T04:25:20.482Z,21.52
2023-01-26T04:30:24.949Z,16.57
2023-01-26T04:35:26.753Z,22.50
2023-01-26T04:40:28.387Z,21.90
2023-01-26T04:45:30.131Z,20.80
2023-01-26T04:50:31.880Z,21.02
2023-01-26T04:55:33.559Z,22.00
2023-01-26T05:00:35.230Z,21.98
2023-01-26T05:05:38.061Z,21.90
2023-01-26T05:10:39.697Z,21.90
2023-01-26T05:15:41.359Z,21.08
2023-01-26T05:20:43.040Z,22.63
2023-01-26T05:25:44.688Z,22.08
2023-01-26T05:30:47.789Z,22.55
2023-01-26T05:35:50.353Z,22.20
2023-01-26T05:40:51.973Z,21.98
2023-01-26T05:45:53.752Z,22.42
2023-01-26T05:50:57.585Z,22.45
2023-01-26T05:55:59.352Z,22.15
2023-01-26T06:01:04.627Z,21.65
2023-01-26T06:06:06.488Z,21.90
2023-01-26T06:11:08.210Z,23.85
2023-01-26T06:16:09.863Z,22.73
2023-01-26T06:21:11.494Z,22.35
2023-01-26T06:26:15.905Z,22.73
2023-01-26T06:31:17.938Z,22.35
2023-01-26T06:36:19.871Z,21.40
2023-01-26T06:41:21.594Z,21.23
2023-01-26T06:46:24.607Z,22.08
2023-01-26T06:51:29.173Z,21.77
2023-01-26T06:56:30.888Z,23.95
2023-01-26T07:01:39.404Z,23.27
2023-01-26T07:06:42.725Z,21.77
2023-01-26T07:11:44.704Z,21.17
2023-01-26T07:16:46.382Z,21.45
2023-01-26T07:21:49.826Z,21.80
2023-01-26T07:26:51.545Z,20.40
2023-01-26T07:31:53.324Z,21.98
2023-01-26T07:36:55.047Z,22.67
2023-01-26T07:41:56.733Z,24.63
2023-01-26T07:46:58.480Z,23.27
2023-01-26T07:52:00.159Z,23.90
2023-01-26T07:57:01.972Z,25.35
2023-01-26T08:02:04.727Z,22.38
2023-01-26T08:07:06.434Z,23.57
2023-01-26T08:12:08.413Z,24.27
2023-01-26T08:17:10.084Z,24.58
2023-01-26T08:22:11.933Z,24.55
2023-01-26T08:27:21.827Z,24.70
2023-01-26T08:32:23.521Z,23.45
2023-01-26T08:37:30.628Z,22.27
2023-01-26T08:42:33.369Z,22.67
2023-01-26T08:47:35.101Z,23.80
2023-01-26T08:52:36.969Z,23.42
2023-01-26T08:57:38.763Z,23.13
2023-01-26T09:02:42.117Z,21.75
2023-01-26T09:07:45.721Z,24.20
2023-01-26T09:12:47.360Z,20.80
2023-01-26T09:17:51.575Z,21.77
2023-01-26T09:22:54.568Z,20.27
2023-01-26T09:27:56.520Z,21.60
2023-01-26T09:33:03.064Z,21.75
2023-01-26T09:38:04.928Z,21.95
2023-01-26T09:43:25.452Z,21.75
2023-01-26T09:48:32.737Z,21.23
2023-01-26T09:53:57.357Z,21.50
2023-01-26T09:59:08.090Z,21.50
2023-01-26T10:04:27.174Z,24.10
2023-01-26T10:09:36.181Z,24.38
2023-01-26T10:14:58.876Z,25.30
2023-01-26T10:20:29.433Z,28.58
2023-01-26T10:25:41.842Z,27.95
2023-01-26T10:30:46.339Z,27.52
2023-01-26T10:35:48.152Z,26.95
2023-01-26T10:40:52.820Z,24.42
2023-01-26T10:45:55.707Z,25.67
2023-01-26T10:51:15.997Z,25.50
2023-01-26T10:56:17.720Z,26.20
2023-01-26T11:01:25.067Z,25.20
2023-01-26T11:06:31.767Z,27.42
2023-01-26T11:11:33.486Z,26.25
2023-01-26T11:16:35.412Z,24.42
2023-01-26T11:21:45.163Z,24.85
2023-01-26T11:27:14.851Z,26.00
2023-01-26T11:32:49.875Z,24.83
2023-01-26T11:38:12.557Z,25.23
2023-01-26T11:43:35.307Z,26.83
2023-01-26T11:48:37.293Z,25.20
2023-01-26T11:54:08.502Z,25.60
2023-01-26T11:59:16.424Z,23.88
2023-01-26T12:04:20.730Z,22.02
2023-01-26T12:09:26.999Z,20.08
2023-01-26T12:14:46.347Z,21.08
2023-01-26T12:20:29.769Z,19.35
2023-01-26T12:25:47.653Z,17.63
2023-01-26T12:31:10.289Z,23.77
2023-01-26T12:36:19.516Z,23.60
2023-01-26T12:41:45.096Z,21.10
2023-01-26T12:47:30.114Z,19.35
2023-01-26T12:52:53.445Z,20.38
2023-01-26T12:58:03.726Z,22.20
2023-01-26T13:03:14.771Z,23.08
2023-01-26T13:08:31.506Z,23.33
2023-01-26T13:13:52.016Z,24.48
2023-01-26T13:18:55.806Z,25.48
2023-01-26T13:29:33.498Z,21.80
2023-01-26T13:34:45.074Z,24.23
2023-01-26T13:39:54.274Z,23.30
2023-01-26T13:45:19.449Z,23.90
2023-01-26T13:50:37.751Z,24.48
2023-01-26T13:55:42.195Z,23.45
2023-01-26T14:01:07.559Z,24.27
2023-01-26T14:06:22.526Z,24.00
2023-01-26T14:11:27.522Z,21.23
2023-01-26T14:16:32.185Z,23.25
2023-01-26T14:21:46.592Z,23.30
2023-01-26T14:26:49.047Z,22.65
2023-01-26T14:31:53.116Z,22.45
2023-01-26T14:37:14.029Z,23.75
2023-01-26T14:42:18.453Z,24.77
2023-01-26T14:47:30.956Z,25.98
2023-01-26T14:52:35.527Z,26.10
2023-01-26T14:57:37.366Z,24.00
2023-01-26T15:02:44.160Z,23.13
2023-01-26T15:07:57.002Z,24.00
2023-01-26T15:13:02.779Z,24.98
2023-01-26T15:18:13.657Z,22.67
2023-01-26T15:23:23.104Z,25.83
2023-01-26T15:28:26.050Z,24.58
2023-01-26T15:33:47.887Z,26.20
2023-01-26T15:38:49.811Z,26.90
2023-01-26T15:43:51.505Z,25.58
2023-01-26T15:48:53.447Z,23.95
2023-01-26T15:53:55.160Z,23.50
2023-01-26T15:58:57.507Z,24.17
2023-01-26T16:03:59.220Z,23.55
2023-01-26T16:09:01.012Z,25.40
2023-01-26T16:14:04.342Z,24.40
2023-01-26T16:19:06.202Z,22.42
2023-01-26T16:24:10.093Z,22.88
2023-01-26T16:29:11.852Z,22.92
2023-01-26T16:34:13.534Z,24.60
2023-01-26T16:39:16.344Z,21.17
2023-01-26T16:44:19.512Z,15.60
2023-01-26T16:49:21.407Z,19.42
2023-01-26T16:54:23.240Z,19.92
2023-01-26T16:59:24.971Z,18.77
2023-01-26T17:04:26.698Z,18.10
2023-01-26T17:09:28.589Z,17.38
2023-01-26T17:14:30.335Z,18.10
2023-01-26T17:19:32.095Z,17.27
2023-01-26T17:24:33.931Z,18.20
2023-01-26T17:29:36.061Z,24.13
2023-01-26T17:34:37.788Z,21.05
2023-01-26T17:39:39.496Z,20.77
2023-01-26T17:44:42.236Z,20.85
2023-01-26T17:49:44.000Z,14.68
2023-01-26T17:54:45.712Z,24.25
2023-01-26T17:59:47.391Z,19.98
2023-01-26T18:04:49.130Z,24.45
2023-01-26T18:09:50.932Z,22.70
2023-01-26T18:14:54.911Z,20.70
2023-01-26T18:19:56.902Z,26.90
2023-01-26T18:24:59.199Z,23.63
2023-01-26T18:30:01.024Z,23.75
2023-01-26T18:35:02.716Z,25.50
2023-01-26T18:40:05.137Z,25.00
2023-01-26T18:45:07.731Z,29.13
2023-01-26T18:50:10.771Z,30.05
2023-01-26T18:55:12.761Z,27.03
2023-01-26T19:00:14.857Z,35.35
2023-01-26T19:05:16.674Z,29.65
2023-01-26T19:10:18.423Z,28.50
2023-01-26T19:15:20.225Z,27.75
2023-01-26T19:20:22.341Z,27.48
2023-01-26T19:25:25.698Z,26.02
2023-01-26T19:30:27.511Z,29.15
2023-01-26T19:35:30.677Z,27.13
2023-01-26T19:40:33.514Z,26.97
2023-01-26T19:45:35.368Z,28.92
2023-01-26T19:50:37.200Z,29.58
2023-01-26T19:55:39.010Z,27.25
2023-01-26T20:00:40.770Z,28.65
2023-01-26T20:05:42.410Z,27.73
2023-01-26T20:10:44.079Z,28.10
2023-01-26T20:15:45.861Z,25.15
2023-01-26T20:20:51.565Z,24.13
2023-01-26T20:26:00.759Z,25.45
2023-01-26T20:31:13.791Z,27.85
2023-01-26T20:36:18.056Z,26.75
2023-01-26T20:41:25.945Z,25.45
2023-01-26T20:46:33.006Z,24.50
2023-01-26T20:51:36.426Z,26.13
2023-01-26T20:56:38.398Z,26.17
2023-01-26T21:01:40.385Z,27.48
2023-01-26T21:06:42.400Z,27.05
2023-01-26T21:11:44.143Z,27.85
2023-01-26T21:16:46.817Z,27.13
2023-01-26T21:21:48.518Z,29.45
2023-01-26T21:26:50.368Z,31.88
2023-01-26T21:31:52.316Z,32.80
2023-01-26T21:36:55.173Z,32.17
2023-01-26T21:41:56.937Z,29.90
2023-01-26T21:47:03.729Z,29.83
2023-01-26T21:52:24.289Z,33.08
2023-01-26T21:57:44.670Z,38.75
2023-01-26T22:02:46.978Z,31.10
2023-01-26T22:07:48.659Z,32.35
2023-01-26T22:12:50.685Z,32.28
2023-01-26T22:17:52.399Z,32.42
2023-01-26T22:22:54.027Z,29.35
2023-01-26T22:27:55.783Z,32.72
2023-01-26T22:32:57.474Z,30.58
2023-01-26T22:37:59.990Z,30.27
2023-01-26T22:43:01.689Z,31.23
2023-01-26T22:48:04.097Z,35.90
2023-01-26T22:53:05.781Z,40.63
2023-01-26T22:58:08.059Z,33.97
2023-01-26T23:03:09.722Z,30.02
2023-01-26T23:08:11.557Z,35.72
2023-01-26T23:13:13.223Z,32.80
2023-01-26T23:18:14.831Z,32.20
2023-01-26T23:23:16.531Z,35.88
2023-01-26T23:28:20.549Z,43.35
2023-01-26T23:33:24.210Z,31.77
2023-01-26T23:38:27.645Z,34.20
2023-01-26T23:43:29.273Z,40.30
2023-01-26T23:48:31.096Z,38.72
2023-01-26T23:53:33.165Z,39.53
2023-01-26T23:58:36.514Z,39.03
